Time;durP1;ratioP1;P1;durP2;ratioP2;P2;SDS_P1;SDS_P2;PMS_P1;PMS_P2;Temp;Humidity;BMP_temperature;BMP_pressure;BME280_temperature;BME280_humidity;BME280_pressure;Samples;Min_cycle;Max_cycle;Signal;HPM_P1;HPM_P2
2023/04/20 00:01:28;;;;;;;5.50;4.60;;;11.80;43.80;;;;;;5095985;28;20525;-55
2023/04/20 00:03:55;;;;;;;5.43;4.10;;;11.70;43.70;;;;;;5095497;28;20950;-54
2023/04/20 00:06:28;;;;;;;6.73;4.87;;;11.80;43.60;;;;;;5096048;28;20451;-55
2023/04/20 00:08:55;;;;;;;4.20;3.60;;;11.70;43.50;;;;;;5096336;28;20438;-55
2023/04/20 00:11:21;;;;;;;4.10;3.70;;;11.70;44.00;;;;;;5096299;28;21015;-55
2023/04/20 00:13:48;;;;;;;4.33;3.70;;;11.70;43.70;;;;;;5099451;28;20847;-55
2023/04/20 00:16:14;;;;;;;4.80;3.40;;;11.70;43.60;;;;;;5096871;28;20440;-55
2023/04/20 00:18:41;;;;;;;7.23;4.37;;;11.70;43.90;;;;;;5096888;28;20443;-55
2023/04/20 00:21:08;;;;;;;5.87;4.17;;;11.60;44.00;;;;;;5095575;28;20937;-55
2023/04/20 00:23:36;;;;;;;4.30;3.30;;;11.60;43.70;;;;;;5095654;28;20443;-55
2023/04/20 00:26:03;;;;;;;4.10;3.70;;;11.50;43.90;;;;;;5095158;28;20447;-55
2023/04/20 00:28:30;;;;;;;5.07;4.10;;;11.60;44.10;;;;;;5095174;28;20447;-55
2023/04/20 00:30:57;;;;;;;7.47;4.70;;;11.60;44.60;;;;;;5095008;28;20448;-55
2023/04/20 00:33:24;;;;;;;5.50;3.83;;;11.50;44.90;;;;;;5094825;28;20475;-55
2023/04/20 00:35:50;;;;;;;4.03;3.63;;;11.50;45.30;;;;;;5094737;28;20551;-55
2023/04/20 00:38:17;;;;;;;6.70;4.20;;;11.50;45.30;;;;;;5094831;28;20847;-55
2023/04/20 00:40:47;;;;;;;4.87;3.50;;;11.50;45.50;;;;;;5094495;28;20460;-54
2023/04/20 00:43:14;;;;;;;10.33;4.30;;;11.50;45.30;;;;;;5094371;28;20870;-54
2023/04/20 00:45:41;;;;;;;4.77;4.13;;;11.50;45.40;;;;;;5094667;28;20483;-54
2023/04/20 00:48:08;;;;;;;5.30;4.67;;;11.50;45.10;;;;;;5094415;28;20933;-55
2023/04/20 00:50:35;;;;;;;4.87;3.90;;;11.40;45.10;;;;;;5094474;28;20451;-54
2023/04/20 00:53:02;;;;;;;5.23;4.60;;;11.40;45.40;;;;;;5095261;28;20468;-55
2023/04/20 00:55:30;;;;;;;7.30;4.40;;;11.40;45.10;;;;;;5094235;28;20811;-54
2023/04/20 00:57:58;;;;;;;7.37;4.43;;;11.40;46.10;;;;;;5094369;28;20793;-54
2023/04/20 01:00:26;;;;;;;4.93;4.43;;;11.40;46.10;;;;;;5094251;28;20953;-55
2023/04/20 01:02:52;;;;;;;3.73;3.40;;;11.30;45.90;;;;;;5094431;28;20499;-55
2023/04/20 01:05:19;;;;;;;5.87;4.30;;;11.20;44.80;;;;;;5094440;28;20447;-55
2023/04/20 01:07:46;;;;;;;6.80;4.20;;;11.10;44.60;;;;;;5093963;28;20483;-55
2023/04/20 01:10:13;;;;;;;4.93;4.00;;;11.10;44.70;;;;;;5094215;28;20471;-55
2023/04/20 01:12:40;;;;;;;4.43;4.03;;;11.10;44.60;;;;;;5094111;28;20464;-55
2023/04/20 01:15:09;;;;;;;5.03;3.50;;;11.10;44.90;;;;;;5094085;28;20586;-55
2023/04/20 01:17:36;;;;;;;5.03;4.20;;;11.10;44.60;;;;;;5094059;28;20451;-55
2023/04/20 01:20:04;;;;;;;8.37;4.10;;;11.10;44.60;;;;;;5093911;28;20526;-55
2023/04/20 01:22:32;;;;;;;7.20;4.40;;;11.10;44.50;;;;;;5093892;28;20467;-54
2023/04/20 01:24:58;;;;;;;4.90;3.90;;;11.10;45.10;;;;;;5093591;28;20443;-54
2023/04/20 01:27:25;;;;;;;3.93;3.53;;;11.10;44.60;;;;;;5093815;28;20439;-55
2023/04/20 01:29:51;;;;;;;4.27;3.63;;;11.10;44.90;;;;;;5093622;28;20468;-54
2023/04/20 01:32:18;;;;;;;6.03;4.53;;;11.10;46.40;;;;;;5093743;28;20463;-55
2023/04/20 01:34:45;;;;;;;6.93;4.10;;;11.10;46.00;;;;;;5093669;28;20536;-55
2023/04/20 01:37:11;;;;;;;6.17;3.90;;;11.10;45.60;;;;;;5093365;28;20954;-54
2023/04/20 01:39:40;;;;;;;5.30;3.63;;;11.10;45.20;;;;;;5093766;28;20889;-54
2023/04/20 01:42:07;;;;;;;5.87;4.67;;;11.10;45.90;;;;;;5093699;28;20468;-55
2023/04/20 01:44:34;;;;;;;5.40;4.07;;;11.00;46.20;;;;;;5093453;28;20436;-55
2023/04/20 01:47:00;;;;;;;7.50;4.70;;;11.00;46.30;;;;;;5093605;28;20452;-55
2023/04/20 01:49:27;;;;;;;5.00;4.50;;;11.00;45.80;;;;;;5093175;28;20505;-54
2023/04/20 01:51:54;;;;;;;4.90;4.40;;;10.90;45.80;;;;;;5093612;28;20471;-55
2023/04/20 01:54:21;;;;;;;6.93;5.10;;;10.90;45.40;;;;;;5092553;28;20501;-54
2023/04/20 01:56:49;;;;;;;9.40;5.00;;;10.90;45.00;;;;;;5093428;28;20440;-54
2023/04/20 01:59:16;;;;;;;6.30;4.40;;;10.80;44.80;;;;;;5093077;28;20872;-54
2023/04/20 02:01:42;;;;;;;10.93;4.17;;;10.80;44.50;;;;;;5093629;28;20491;-54
2023/04/20 02:04:09;;;;;;;13.63;4.90;;;10.70;44.30;;;;;;5093333;28;20505;-55
2023/04/20 02:06:36;;;;;;;5.50;4.80;;;10.70;44.40;;;;;;5093419;28;20447;-54
2023/04/20 02:09:02;;;;;;;7.47;4.90;;;10.70;44.30;;;;;;5093027;28;20447;-54
2023/04/20 02:11:29;;;;;;;4.70;4.20;;;10.70;44.40;;;;;;5093233;28;20443;-55
2023/04/20 02:13:57;;;;;;;5.07;4.37;;;10.70;44.30;;;;;;5094169;28;20478;-55
2023/04/20 02:16:24;;;;;;;4.80;4.10;;;10.70;44.40;;;;;;5093558;28;20448;-55
2023/04/20 02:18:50;;;;;;;7.47;4.07;;;10.70;45.10;;;;;;5093326;28;20443;-55
2023/04/20 02:21:18;;;;;;;4.73;3.60;;;10.70;44.60;;;;;;5093126;28;20448;-55
2023/04/20 02:23:45;;;;;;;8.43;4.00;;;10.70;44.90;;;;;;5093098;28;20964;-55
2023/04/20 02:26:11;;;;;;;6.50;3.87;;;10.70;45.00;;;;;;5093260;28;20444;-55
2023/04/20 02:28:38;;;;;;;7.27;3.90;;;10.70;45.30;;;;;;5093092;28;20452;-55
2023/04/20 02:31:06;;;;;;;8.60;4.10;;;10.70;46.40;;;;;;5093113;28;20458;-55
2023/04/20 02:33:33;;;;;;;8.93;4.43;;;10.70;46.10;;;;;;5093059;28;20537;-54
2023/04/20 02:36:00;;;;;;;4.13;3.60;;;10.70;46.30;;;;;;5093103;28;20451;-55
2023/04/20 02:38:26;;;;;;;4.30;3.90;;;10.70;46.20;;;;;;5093060;28;20543;-54
2023/04/20 02:40:53;;;;;;;6.40;3.93;;;10.70;46.90;;;;;;5092625;28;21003;-55
2023/04/20 02:43:20;;;;;;;8.83;3.80;;;10.70;46.90;;;;;;5093008;28;20471;-55
2023/04/20 02:45:46;;;;;;;5.33;4.33;;;10.70;46.90;;;;;;5092996;28;20526;-54
2023/04/20 02:48:15;;;;;;;4.37;3.73;;;10.70;46.40;;;;;;5093014;28;20450;-55
2023/04/20 02:50:42;;;;;;;3.40;3.10;;;10.70;46.40;;;;;;5092913;28;20505;-55
2023/04/20 02:53:08;;;;;;;5.97;4.40;;;10.70;46.30;;;;;;5092858;28;20463;-55
2023/04/20 02:55:35;;;;;;;7.33;3.70;;;10.70;46.70;;;;;;5093169;28;20480;-55
2023/04/20 02:58:02;;;;;;;5.20;3.60;;;10.70;46.90;;;;;;5092915;28;20447;-54
2023/04/20 03:00:29;;;;;;;3.87;3.50;;;10.60;46.90;;;;;;5093681;28;20447;-54
2023/04/20 03:02:56;;;;;;;6.90;4.00;;;10.70;46.80;;;;;;5096477;28;20835;-55
2023/04/20 03:05:24;;;;;;;5.43;3.73;;;10.70;46.70;;;;;;5096173;28;20822;-55
2023/04/20 03:07:51;;;;;;;7.73;3.60;;;10.70;46.80;;;;;;5096437;28;20447;-55
2023/04/20 03:10:18;;;;;;;8.90;4.10;;;10.70;47.00;;;;;;5096294;28;20482;-55
2023/04/20 03:12:45;;;;;;;5.13;3.80;;;10.70;46.90;;;;;;5096319;28;20479;-55
2023/04/20 03:15:12;;;;;;;5.30;4.20;;;10.70;46.70;;;;;;5097325;28;20502;-54
2023/04/20 03:17:38;;;;;;;6.00;3.77;;;10.70;47.30;;;;;;5096786;28;20544;-55
2023/04/20 03:20:07;;;;;;;4.63;3.40;;;10.70;47.40;;;;;;5096106;28;20452;-55
2023/04/20 03:22:35;;;;;;;8.10;4.77;;;10.70;46.80;;;;;;5097631;28;20468;-55
2023/04/20 03:25:02;;;;;;;3.80;3.27;;;10.70;46.90;;;;;;5097992;28;20451;-55
2023/04/20 03:27:29;;;;;;;5.60;3.30;;;10.60;47.20;;;;;;5097468;28;20458;-55
2023/04/20 03:29:56;;;;;;;8.17;3.70;;;10.60;46.90;;;;;;5096509;28;20446;-54
2023/04/20 03:32:22;;;;;;;4.17;3.20;;;10.60;46.70;;;;;;5096145;28;21020;-55
2023/04/20 03:34:50;;;;;;;4.30;3.00;;;10.60;46.20;;;;;;5096053;28;20873;-55
2023/04/20 03:37:17;;;;;;;4.13;3.10;;;10.60;46.20;;;;;;5095730;28;20937;-55
2023/04/20 03:39:45;;;;;;;4.57;3.33;;;10.60;45.30;;;;;;5095976;28;20452;-54
2023/04/20 03:42:12;;;;;;;3.20;2.90;;;10.60;46.10;;;;;;5096459;28;20486;-54
2023/04/20 03:44:38;;;;;;;4.10;3.70;;;10.60;46.40;;;;;;5096002;28;20440;-54
2023/04/20 03:47:05;;;;;;;5.73;3.60;;;10.50;46.40;;;;;;5095956;28;20478;-54
2023/04/20 03:49:32;;;;;;;4.40;2.90;;;10.50;46.90;;;;;;5095812;28;20486;-55
2023/04/20 03:51:58;;;;;;;6.27;3.30;;;10.50;47.10;;;;;;5095524;28;21007;-54
2023/04/20 03:54:25;;;;;;;4.13;3.60;;;10.50;46.60;;;;;;5095592;28;20480;-54
2023/04/20 03:56:53;;;;;;;7.47;3.63;;;10.50;47.10;;;;;;5095744;28;20447;-55
2023/04/20 03:59:20;;;;;;;5.03;3.17;;;10.50;47.70;;;;;;5095946;28;20448;-55
2023/04/20 04:01:47;;;;;;;4.27;2.70;;;10.50;47.50;;;;;;5095819;28;20507;-54
2023/04/20 04:04:13;;;;;;;5.50;2.90;;;10.50;47.50;;;;;;5095319;28;20929;-55
2023/04/20 04:06:40;;;;;;;5.07;3.73;;;10.50;48.00;;;;;;5095757;28;20447;-55
2023/04/20 04:09:07;;;;;;;5.23;3.40;;;10.50;48.50;;;;;;5096271;28;20455;-54
2023/04/20 04:11:34;;;;;;;8.40;3.27;;;10.50;48.80;;;;;;5094545;28;20490;-54
2023/04/20 04:14:03;;;;;;;5.43;3.20;;;10.50;49.00;;;;;;5094820;28;20937;-54
2023/04/20 04:16:30;;;;;;;6.37;4.00;;;10.50;49.30;;;;;;5095184;28;20447;-55
2023/04/20 04:18:57;;;;;;;11.03;3.93;;;10.50;49.30;;;;;;5094928;28;20447;-55
2023/04/20 04:21:24;;;;;;;6.87;3.37;;;10.50;48.90;;;;;;5095014;28;20856;-55
2023/04/20 04:23:51;;;;;;;5.53;3.40;;;10.40;49.00;;;;;;5095101;28;20439;-55
2023/04/20 04:26:20;;;;;;;5.53;3.97;;;10.50;49.20;;;;;;5095038;28;20444;-55
2023/04/20 04:28:48;;;;;;;8.90;4.30;;;10.50;49.20;;;;;;5094680;28;20825;-54
2023/04/20 04:31:18;;;;;;;4.00;3.60;;;10.50;49.60;;;;;;5094911;28;20449;-55
2023/04/20 04:33:45;;;;;;;4.93;2.90;;;10.50;49.60;;;;;;5094873;28;20440;-55
2023/04/20 04:36:14;;;;;;;5.73;3.47;;;10.50;49.50;;;;;;5095072;28;20553;-55
2023/04/20 04:38:41;;;;;;;3.97;3.60;;;10.50;49.50;;;;;;5095586;28;20590;-55
2023/04/20 04:41:08;;;;;;;4.13;3.73;;;10.50;49.50;;;;;;5094324;28;20467;-55
2023/04/20 04:43:35;;;;;;;7.33;3.43;;;10.50;49.30;;;;;;5094349;28;20996;-55
2023/04/20 04:46:08;;;;;;;5.73;3.70;;;10.50;49.30;;;;;;5094699;28;20821;-54
2023/04/20 04:48:36;;;;;;;6.60;3.73;;;10.50;49.50;;;;;;5094698;28;20435;-55
2023/04/20 04:51:03;;;;;;;4.03;3.20;;;10.50;49.30;;;;;;5094104;28;20497;-54
2023/04/20 04:53:30;;;;;;;9.33;5.90;;;10.50;49.20;;;;;;5094389;28;20470;-55
2023/04/20 04:55:57;;;;;;;4.83;3.97;;;10.50;49.70;;;;;;5094457;28;20567;-55
2023/04/20 04:58:23;;;;;;;4.73;3.80;;;10.40;49.80;;;;;;5094323;28;20451;-55
2023/04/20 05:00:50;;;;;;;6.83;3.90;;;10.50;50.20;;;;;;5093981;28;20941;-55
2023/04/20 05:03:17;;;;;;;4.00;3.60;;;10.50;50.10;;;;;;5094356;28;20499;-55
2023/04/20 05:05:45;;;;;;;6.13;4.53;;;10.50;50.20;;;;;;5094267;28;20442;-55
2023/04/20 05:08:12;;;;;;;6.20;3.60;;;10.50;50.50;;;;;;5094274;28;20447;-55
2023/04/20 05:10:39;;;;;;;4.50;3.80;;;10.50;50.60;;;;;;5094756;28;20998;-55
2023/04/20 05:13:05;;;;;;;6.63;4.57;;;10.40;50.80;;;;;;5094031;28;20463;-55
2023/04/20 05:15:32;;;;;;;7.83;4.00;;;10.50;51.20;;;;;;5093662;28;20475;-55
2023/04/20 05:18:01;;;;;;;7.90;4.90;;;10.50;51.30;;;;;;5094039;28;20455;-55
2023/04/20 05:20:28;;;;;;;5.70;4.50;;;10.50;51.50;;;;;;5093679;28;21044;-55
2023/04/20 05:22:56;;;;;;;5.50;4.33;;;10.50;51.50;;;;;;5092873;28;20485;-54
2023/04/20 05:25:23;;;;;;;6.40;4.13;;;10.50;51.60;;;;;;5093828;28;20444;-55
2023/04/20 05:27:50;;;;;;;7.60;4.40;;;10.50;51.80;;;;;;5093913;28;20452;-54
2023/04/20 05:30:17;;;;;;;7.17;3.87;;;10.60;52.00;;;;;;5093483;28;20886;-54
2023/04/20 05:32:43;;;;;;;10.77;4.87;;;10.60;51.90;;;;;;5093774;28;20471;-55
2023/04/20 05:35:10;;;;;;;5.50;4.70;;;10.60;52.00;;;;;;5093742;28;20486;-55
2023/04/20 05:37:37;;;;;;;5.70;4.40;;;10.70;52.20;;;;;;5093650;28;20451;-55
2023/04/20 05:40:06;;;;;;;5.87;4.80;;;10.70;52.00;;;;;;5093811;28;20478;-55
2023/04/20 05:42:34;;;;;;;6.20;3.90;;;10.80;52.00;;;;;;5093610;28;20463;-55
2023/04/20 05:45:01;;;;;;;10.40;4.63;;;10.80;52.30;;;;;;5093626;28;20447;-55
2023/04/20 05:47:27;;;;;;;5.07;4.30;;;10.80;51.40;;;;;;5093567;28;20448;-55
2023/04/20 05:49:54;;;;;;;8.03;4.80;;;10.80;51.70;;;;;;5093491;28;20454;-54
2023/04/20 05:52:21;;;;;;;5.10;4.60;;;10.80;52.10;;;;;;5093577;28;20467;-55
2023/04/20 05:54:48;;;;;;;5.43;4.13;;;10.80;52.40;;;;;;5093331;28;20490;-55
2023/04/20 05:57:16;;;;;;;6.23;4.10;;;10.80;52.30;;;;;;5093562;28;20447;-55
2023/04/20 05:59:43;;;;;;;8.30;4.40;;;10.80;52.50;;;;;;5093610;28;20447;-55
2023/04/20 06:02:10;;;;;;;8.30;4.40;;;10.80;52.20;;;;;;5093399;28;20464;-55
2023/04/20 06:04:36;;;;;;;5.83;4.83;;;10.80;52.10;;;;;;5093448;28;20443;-54
2023/04/20 06:07:03;;;;;;;14.73;5.10;;;10.80;52.50;;;;;;5093405;28;20456;-55
2023/04/20 06:09:30;;;;;;;9.50;4.60;;;10.80;52.60;;;;;;5093462;28;20443;-55
2023/04/20 06:11:56;;;;;;;4.97;4.10;;;10.80;52.70;;;;;;5092645;28;21039;-55
2023/04/20 06:14:24;;;;;;;9.67;4.97;;;10.80;52.90;;;;;;5093374;28;20454;-55
2023/04/20 06:16:51;;;;;;;5.33;4.63;;;10.80;53.20;;;;;;5093111;28;20494;-55
2023/04/20 06:19:18;;;;;;;6.70;4.47;;;10.90;53.50;;;;;;5093216;28;20455;-55
2023/04/20 06:21:45;;;;;;;4.73;4.30;;;10.90;53.60;;;;;;5093272;28;20868;-55
2023/04/20 06:24:12;;;;;;;7.70;4.93;;;10.90;53.70;;;;;;5093226;28;21037;-55
2023/04/20 06:26:38;;;;;;;5.10;4.20;;;11.00;53.60;;;;;;5094642;28;20472;-55
2023/04/20 06:29:05;;;;;;;5.80;4.87;;;11.00;53.50;;;;;;5094234;28;20447;-55
2023/04/20 06:31:33;;;;;;;7.13;5.23;;;11.00;53.70;;;;;;5093786;28;20551;-55
2023/04/20 06:34:00;;;;;;;7.07;6.10;;;11.00;53.80;;;;;;5093131;28;20450;-54
2023/04/20 06:36:27;;;;;;;6.70;5.20;;;11.00;54.10;;;;;;5097686;28;20786;-55
2023/04/20 06:38:54;;;;;;;6.90;5.57;;;11.00;54.20;;;;;;5097216;28;20452;-55
2023/04/20 06:41:20;;;;;;;6.23;5.30;;;11.00;54.40;;;;;;5096669;28;20505;-55
2023/04/20 06:43:47;;;;;;;11.57;7.73;;;11.10;54.90;;;;;;5097110;28;20455;-55
2023/04/20 06:46:14;;;;;;;8.47;7.70;;;11.00;55.40;;;;;;5097024;28;20858;-55
2023/04/20 06:48:42;;;;;;;10.50;9.40;;;11.00;56.10;;;;;;5096885;28;20447;-54
2023/04/20 06:51:09;;;;;;;10.87;9.97;;;10.90;56.30;;;;;;5096807;28;20447;-55
2023/04/20 06:53:35;;;;;;;14.77;9.97;;;10.90;56.60;;;;;;5096956;28;20472;-55
2023/04/20 06:56:02;;;;;;;11.00;10.00;;;11.00;56.90;;;;;;5096710;28;20487;-55
2023/04/20 06:58:29;;;;;;;11.33;10.33;;;11.00;57.00;;;;;;5096756;28;20451;-55
2023/04/20 07:00:56;;;;;;;11.33;10.23;;;11.00;57.00;;;;;;5096804;28;20500;-55
2023/04/20 07:03:23;;;;;;;11.87;10.07;;;11.00;57.10;;;;;;5096835;28;20464;-55
2023/04/20 07:05:51;;;;;;;10.40;9.50;;;10.90;57.80;;;;;;5096248;28;20921;-55
2023/04/20 07:08:17;;;;;;;9.90;8.90;;;10.90;57.80;;;;;;5096200;28;20494;-55
2023/04/20 07:10:44;;;;;;;11.67;10.50;;;11.00;57.90;;;;;;5096353;28;20444;-55
2023/04/20 07:13:11;;;;;;;11.57;10.37;;;11.00;58.20;;;;;;5096524;28;20495;-55
2023/04/20 07:15:37;;;;;;;10.33;9.43;;;11.00;58.50;;;;;;5095963;28;20991;-55
2023/04/20 07:18:05;;;;;;;10.17;9.17;;;11.00;58.50;;;;;;5096530;28;20448;-55
2023/04/20 07:20:31;;;;;;;8.63;7.93;;;11.00;58.70;;;;;;5096213;28;20542;-54
2023/04/20 07:22:59;;;;;;;8.63;7.70;;;11.00;58.50;;;;;;5096305;28;20932;-55
2023/04/20 07:25:26;;;;;;;7.47;6.80;;;10.90;59.00;;;;;;5096319;28;20448;-55
2023/04/20 07:27:53;;;;;;;8.40;7.20;;;10.80;59.10;;;;;;5096328;28;20452;-55
2023/04/20 07:30:20;;;;;;;8.00;7.10;;;10.80;59.20;;;;;;5096423;28;20456;-55
2023/04/20 07:32:47;;;;;;;9.50;6.93;;;10.80;59.70;;;;;;5096007;28;20464;-55
2023/04/20 07:35:13;;;;;;;5.90;5.40;;;10.80;60.60;;;;;;5095958;28;20443;-55
2023/04/20 07:37:40;;;;;;;8.67;5.93;;;10.80;60.50;;;;;;5096070;28;20451;-55
2023/04/20 07:40:10;;;;;;;5.47;5.07;;;10.80;61.20;;;;;;5095899;28;20459;-55
2023/04/20 07:42:37;;;;;;;6.33;4.47;;;10.90;62.10;;;;;;5095654;28;20468;-55
2023/04/20 07:45:04;;;;;;;4.20;3.80;;;10.90;62.10;;;;;;5096072;28;20448;-55
2023/04/20 07:47:31;;;;;;;4.63;4.23;;;11.00;62.60;;;;;;5095129;28;20451;-55
2023/04/20 07:49:57;;;;;;;4.33;4.03;;;11.10;62.70;;;;;;5095726;28;20521;-54
2023/04/20 07:52:24;;;;;;;4.70;4.30;;;11.30;62.70;;;;;;5095675;28;20459;-55
2023/04/20 07:54:52;;;;;;;6.30;4.00;;;11.40;62.10;;;;;;5095723;28;20471;-55
2023/04/20 07:57:20;;;;;;;4.67;4.27;;;11.50;61.70;;;;;;5095414;28;20491;-54
2023/04/20 07:59:47;;;;;;;4.83;4.43;;;11.50;61.30;;;;;;5095500;28;20482;-55
2023/04/20 08:02:14;;;;;;;5.23;4.83;;;11.60;61.70;;;;;;5095633;28;20478;-55
2023/04/20 08:04:40;;;;;;;5.43;4.93;;;11.50;61.60;;;;;;5095613;28;20443;-55
2023/04/20 08:07:07;;;;;;;5.23;4.33;;;11.60;62.40;;;;;;5095479;28;20447;-55
2023/04/20 08:09:34;;;;;;;6.10;5.00;;;11.60;61.90;;;;;;5095756;28;20448;-55
2023/04/20 08:12:00;;;;;;;4.93;4.53;;;11.60;61.80;;;;;;5095686;28;20459;-55
2023/04/20 08:14:28;;;;;;;5.37;4.87;;;11.70;61.90;;;;;;5095471;28;20447;-55
2023/04/20 08:16:55;;;;;;;8.37;4.60;;;11.70;61.90;;;;;;5095601;28;20479;-55
2023/04/20 08:19:22;;;;;;;4.80;4.40;;;11.70;61.90;;;;;;5095641;28;20443;-55
2023/04/20 08:21:50;;;;;;;5.13;4.40;;;11.70;62.50;;;;;;5095237;28;20529;-55
2023/04/20 08:24:17;;;;;;;5.20;4.80;;;11.70;61.90;;;;;;5095292;28;20443;-55
2023/04/20 08:26:44;;;;;;;5.33;4.83;;;11.70;62.10;;;;;;5095446;28;20452;-55
2023/04/20 08:29:11;;;;;;;6.00;5.10;;;11.70;62.40;;;;;;5095536;28;20447;-55
2023/04/20 08:31:39;;;;;;;6.23;5.40;;;11.70;62.60;;;;;;5095139;28;20475;-55
2023/04/20 08:34:06;;;;;;;5.90;5.30;;;11.80;62.50;;;;;;5095038;28;20491;-55
2023/04/20 08:36:33;;;;;;;5.93;5.43;;;11.80;62.50;;;;;;5094605;28;20471;-55
2023/04/20 08:39:06;;;;;;;5.50;5.00;;;11.80;62.50;;;;;;5095184;28;20471;-55
2023/04/20 08:41:33;;;;;;;6.10;5.60;;;11.80;62.40;;;;;;5094588;28;20906;-55
2023/04/20 08:44:00;;;;;;;5.37;4.87;;;11.90;62.10;;;;;;5095464;28;20440;-55
2023/04/20 08:46:27;;;;;;;5.70;5.20;;;11.70;62.10;;;;;;5094782;28;20432;-55
2023/04/20 08:48:56;;;;;;;5.47;4.77;;;11.70;62.40;;;;;;5094572;28;20450;-54
2023/04/20 08:51:23;;;;;;;6.73;6.03;;;11.80;63.10;;;;;;5094631;28;20858;-55
2023/04/20 08:53:50;;;;;;;5.50;5.07;;;11.80;63.00;;;;;;5094422;28;20498;-55
2023/04/20 08:56:17;;;;;;;6.00;4.83;;;11.90;62.40;;;;;;5095425;28;20593;-55
2023/04/20 08:58:43;;;;;;;6.63;5.33;;;12.00;62.60;;;;;;5093338;28;20444;-55
2023/04/20 09:01:10;;;;;;;7.17;5.67;;;12.20;62.20;;;;;;5094336;28;20501;-55
2023/04/20 09:03:39;;;;;;;6.07;4.90;;;12.30;61.50;;;;;;5094343;28;20448;-55
2023/04/20 09:06:15;;;;;;;5.77;5.27;;;12.40;61.20;;;;;;5094182;28;20479;-55
2023/04/20 09:08:42;;;;;;;5.77;5.23;;;12.50;60.90;;;;;;5094302;28;20439;-55
2023/04/20 09:11:21;;;;;;;6.30;5.70;;;12.60;60.70;;;;;;5093888;28;20634;-55
2023/04/20 09:13:57;;;;;;;5.63;5.10;;;12.80;60.10;;;;;;5093894;28;20814;-55
2023/04/20 09:16:24;;;;;;;5.90;5.40;;;13.00;59.40;;;;;;5094697;28;20467;-55
2023/04/20 09:18:52;;;;;;;6.63;6.00;;;13.10;59.10;;;;;;5094991;28;20941;-55
2023/04/20 09:21:20;;;;;;;7.13;5.67;;;13.10;58.40;;;;;;5094632;28;20481;-55
2023/04/20 09:23:56;;;;;;;6.57;5.97;;;13.10;59.00;;;;;;5094535;28;20534;-55
2023/04/20 09:26:23;;;;;;;6.40;5.80;;;13.10;59.10;;;;;;5093557;28;20489;-55
2023/04/20 09:28:49;;;;;;;5.80;5.30;;;13.00;59.00;;;;;;5094161;28;20471;-55
2023/04/20 09:31:21;;;;;;;6.67;6.07;;;13.00;58.70;;;;;;5093960;28;20801;-55
2023/04/20 09:33:57;;;;;;;5.90;5.40;;;13.00;59.00;;;;;;5094119;28;20536;-56
2023/04/20 09:36:35;;;;;;;5.60;5.10;;;13.10;59.20;;;;;;5094050;28;20867;-56
2023/04/20 09:39:05;;;;;;;6.27;5.67;;;13.00;59.00;;;;;;5093857;28;20464;-55
2023/04/20 09:41:33;;;;;;;8.27;6.07;;;13.00;59.10;;;;;;5093827;28;20455;-56
2023/04/20 09:44:00;;;;;;;7.30;6.70;;;13.00;59.30;;;;;;5093517;28;20968;-56
2023/04/20 09:46:31;;;;;;;7.73;6.80;;;13.00;59.70;;;;;;5093883;28;20493;-56
2023/04/20 09:48:58;;;;;;;7.60;6.90;;;13.10;60.20;;;;;;5093839;28;20467;-55
2023/04/20 09:51:27;;;;;;;8.70;8.00;;;13.20;61.10;;;;;;5093509;28;20482;-56
2023/04/20 09:53:57;;;;;;;7.40;6.80;;;13.30;61.40;;;;;;5093701;28;20444;-56
2023/04/20 09:56:25;;;;;;;6.90;6.30;;;13.50;62.20;;;;;;5093579;28;20475;-56
2023/04/20 09:58:52;;;;;;;8.00;7.20;;;13.70;62.20;;;;;;5093861;28;20518;-56
2023/04/20 10:01:19;;;;;;;7.67;6.80;;;13.90;63.00;;;;;;5093815;28;20533;-56
2023/04/20 10:03:46;;;;;;;7.60;7.00;;;14.00;62.60;;;;;;5093677;28;20451;-55
2023/04/20 10:06:20;;;;;;;7.20;6.50;;;14.30;63.00;;;;;;5094303;28;20440;-56
2023/04/20 10:08:50;;;;;;;6.73;6.17;;;14.80;62.80;;;;;;5093939;28;20452;-56
2023/04/20 10:11:27;;;;;;;7.10;6.40;;;15.60;61.70;;;;;;5097921;28;20451;-56
2023/04/20 10:13:54;;;;;;;7.07;6.33;;;16.20;56.90;;;;;;5097868;28;20447;-55
2023/04/20 10:16:22;;;;;;;6.70;6.00;;;16.60;54.70;;;;;;5097514;28;20984;-56
2023/04/20 10:18:59;;;;;;;5.60;5.13;;;16.90;54.00;;;;;;5098077;28;20448;-56
2023/04/20 10:21:26;;;;;;;5.83;5.33;;;17.30;52.30;;;;;;5097727;28;20454;-56
2023/04/20 10:23:55;;;;;;;5.33;5.03;;;18.00;52.30;;;;;;5097416;28;20505;-56
2023/04/20 10:26:22;;;;;;;5.00;4.60;;;18.90;50.20;;;;;;5098174;28;20494;-56
2023/04/20 10:28:49;;;;;;;4.77;4.47;;;19.70;47.40;;;;;;5097094;28;20969;-56
2023/04/20 10:31:16;;;;;;;4.83;4.40;;;20.30;45.50;;;;;;5097196;28;20447;-56
2023/04/20 10:33:53;;;;;;;6.80;4.50;;;20.40;43.40;;;;;;5097078;28;20455;-56
2023/04/20 10:36:28;;;;;;;4.73;3.93;;;20.40;43.30;;;;;;5096722;28;20984;-56
2023/04/20 10:38:57;;;;;;;4.17;3.87;;;20.20;43.20;;;;;;5096868;28;20798;-56
2023/04/20 10:41:24;;;;;;;4.30;3.93;;;20.00;43.30;;;;;;5096614;28;20459;-56
2023/04/20 10:43:50;;;;;;;4.33;3.93;;;19.80;43.30;;;;;;5096928;28;20455;-56
2023/04/20 10:46:18;;;;;;;3.50;3.30;;;19.60;43.20;;;;;;5097024;28;20859;-56
2023/04/20 10:48:52;;;;;;;4.50;4.10;;;19.30;43.90;;;;;;5096661;28;20455;-56
2023/04/20 10:51:18;;;;;;;3.40;3.20;;;19.00;44.20;;;;;;5096682;28;20447;-56
2023/04/20 10:53:45;;;;;;;4.00;3.30;;;18.60;44.10;;;;;;5096574;28;20451;-56
2023/04/20 10:56:13;;;;;;;3.57;3.20;;;18.20;45.00;;;;;;5096731;28;20455;-56
2023/04/20 10:58:41;;;;;;;4.43;4.03;;;17.70;47.00;;;;;;5096481;28;20972;-55
2023/04/20 11:01:08;;;;;;;4.90;3.83;;;17.20;48.50;;;;;;5096396;28;20447;-55
2023/04/20 11:03:35;;;;;;;3.90;3.60;;;16.80;50.40;;;;;;5096637;28;20524;-56
2023/04/20 11:06:02;;;;;;;4.37;3.10;;;16.30;52.10;;;;;;5096597;28;20456;-57
2023/04/20 11:08:40;;;;;;;4.87;3.23;;;15.80;54.40;;;;;;5096220;28;20494;-56
2023/04/20 11:11:19;;;;;;;3.50;3.10;;;15.40;53.30;;;;;;5096439;28;20490;-56
2023/04/20 11:13:46;;;;;;;3.27;2.97;;;15.20;54.70;;;;;;5096434;28;20432;-55
2023/04/20 11:16:14;;;;;;;3.17;2.87;;;15.60;57.50;;;;;;5096303;28;20447;-56
2023/04/20 11:18:52;;;;;;;2.57;2.37;;;16.30;57.70;;;;;;5096126;28;20454;-56
2023/04/20 11:21:20;;;;;;;2.80;2.60;;;17.20;58.70;;;;;;5094989;28;20806;-56
2023/04/20 11:23:46;;;;;;;3.83;2.40;;;18.00;55.50;;;;;;5096223;28;20448;-56
2023/04/20 11:26:13;;;;;;;2.67;2.10;;;18.80;55.10;;;;;;5096203;28;20483;-56
2023/04/20 11:28:52;;;;;;;2.23;2.03;;;19.40;54.00;;;;;;5095636;28;20821;-55
2023/04/20 11:31:19;;;;;;;1.80;1.70;;;20.50;52.90;;;;;;5095934;28;20431;-56
2023/04/20 11:33:46;;;;;;;2.10;1.83;;;21.50;50.20;;;;;;5095796;28;20933;-56
2023/04/20 11:36:19;;;;;;;2.67;2.40;;;22.00;47.00;;;;;;5095591;28;20993;-56
2023/04/20 11:38:46;;;;;;;2.80;2.03;;;21.80;44.80;;;;;;5095931;28;20435;-53
2023/04/20 11:41:12;;;;;;;2.37;2.27;;;21.40;45.90;;;;;;5095444;28;20463;-54
2023/04/20 11:43:39;;;;;;;2.57;2.37;;;20.70;46.60;;;;;;5095873;28;20451;-54
2023/04/20 11:46:15;;;;;;;3.00;2.70;;;20.10;47.90;;;;;;5095881;28;20922;-55
2023/04/20 11:48:42;;;;;;;2.70;2.50;;;19.30;48.90;;;;;;5095746;28;20431;-53
2023/04/20 11:51:09;;;;;;;3.40;3.10;;;18.60;50.20;;;;;;5095679;28;20451;-54
2023/04/20 11:53:36;;;;;;;1.97;1.87;;;18.10;51.00;;;;;;5095654;28;20467;-54
2023/04/20 11:56:03;;;;;;;2.80;2.60;;;17.60;52.70;;;;;;5095466;28;20511;-55
2023/04/20 11:58:30;;;;;;;2.93;2.73;;;17.20;53.70;;;;;;5095521;28;20511;-54
2023/04/20 12:00:57;;;;;;;2.60;2.40;;;16.80;54.80;;;;;;5095548;28;20451;-54
2023/04/20 12:03:25;;;;;;;2.40;2.30;;;16.40;56.20;;;;;;5096482;28;20481;-54
2023/04/20 12:05:52;;;;;;;2.30;2.20;;;16.20;57.50;;;;;;5095695;28;20470;-55
2023/04/20 12:08:19;;;;;;;2.40;2.20;;;16.10;58.10;;;;;;5096662;28;20471;-55
2023/04/20 12:10:46;;;;;;;2.33;2.13;;;16.60;59.90;;;;;;5096306;28;20460;-54
2023/04/20 12:13:13;;;;;;;1.73;1.63;;;17.30;57.80;;;;;;5095947;28;20524;-55
2023/04/20 12:15:40;;;;;;;2.33;1.83;;;17.90;56.60;;;;;;5095823;28;20475;-55
2023/04/20 12:18:07;;;;;;;1.30;1.20;;;19.30;55.90;;;;;;5095236;28;20476;-55
2023/04/20 12:20:35;;;;;;;1.43;1.20;;;20.40;51.90;;;;;;5095321;28;20450;-54
2023/04/20 12:23:02;;;;;;;2.43;1.70;;;21.30;50.40;;;;;;5095214;28;20459;-55
2023/04/20 12:25:29;;;;;;;1.00;0.87;;;22.30;48.00;;;;;;5095187;28;20546;-55
2023/04/20 12:27:56;;;;;;;3.07;0.90;;;23.00;45.50;;;;;;5095176;28;20447;-55
2023/04/20 12:30:23;;;;;;;2.23;1.90;;;23.30;44.40;;;;;;5094809;28;20451;-54
2023/04/20 12:32:49;;;;;;;1.77;1.40;;;23.40;42.90;;;;;;5094641;28;20475;-55
2023/04/20 12:35:16;;;;;;;2.50;1.30;;;23.30;42.00;;;;;;5094905;28;20455;-55
2023/04/20 12:37:44;;;;;;;1.20;1.10;;;23.10;42.30;;;;;;5094822;28;20502;-54
2023/04/20 12:40:11;;;;;;;3.00;1.17;;;23.00;42.30;;;;;;5094690;28;20452;-55
2023/04/20 12:42:38;;;;;;;1.43;1.07;;;22.90;42.20;;;;;;5094373;28;20999;-54
2023/04/20 12:45:05;;;;;;;1.27;1.17;;;22.80;42.30;;;;;;5094729;28;20443;-54
2023/04/20 12:47:32;;;;;;;1.70;1.60;;;22.90;42.80;;;;;;5094595;28;20466;-54